sensor_id;sensor_type;location;lat;lon;timestamp;temperature;humidity
44851;DHT22;30583;48.714;9.386;2023-06-19T00:01:58;29.20;38.70
44851;DHT22;30583;48.714;9.386;2023-06-19T00:04:23;29.10;38.80
44851;DHT22;30583;48.714;9.386;2023-06-19T00:06:49;29.30;38.50
44851;DHT22;30583;48.714;9.386;2023-06-19T00:09:15;29.30;38.30
44851;DHT22;30583;48.714;9.386;2023-06-19T00:11:40;29.20;38.70
44851;DHT22;30583;48.714;9.386;2023-06-19T00:14:06;29.20;38.90
44851;DHT22;30583;48.714;9.386;2023-06-19T00:16:32;29.20;39.10
44851;DHT22;30583;48.714;9.386;2023-06-19T00:18:58;29.20;39.20
44851;DHT22;30583;48.714;9.386;2023-06-19T00:21:24;29.10;39.50
44851;DHT22;30583;48.714;9.386;2023-06-19T00:23:51;29.10;39.70
44851;DHT22;30583;48.714;9.386;2023-06-19T00:26:17;29.10;39.60
44851;DHT22;30583;48.714;9.386;2023-06-19T00:28:43;29.10;39.60
44851;DHT22;30583;48.714;9.386;2023-06-19T00:31:11;29.00;39.40
44851;DHT22;30583;48.714;9.386;2023-06-19T00:33:39;29.00;39.30
44851;DHT22;30583;48.714;9.386;2023-06-19T00:36:09;29.10;39.00
44851;DHT22;30583;48.714;9.386;2023-06-19T00:38:36;29.00;39.20
44851;DHT22;30583;48.714;9.386;2023-06-19T00:41:01;29.10;38.80
44851;DHT22;30583;48.714;9.386;2023-06-19T00:43:27;29.10;38.70
44851;DHT22;30583;48.714;9.386;2023-06-19T00:45:53;29.00;38.90
44851;DHT22;30583;48.714;9.386;2023-06-19T00:48:21;29.10;38.60
44851;DHT22;30583;48.714;9.386;2023-06-19T00:50:46;29.10;39.00
44851;DHT22;30583;48.714;9.386;2023-06-19T00:53:13;29.10;39.40
44851;DHT22;30583;48.714;9.386;2023-06-19T00:55:38;29.10;39.70
44851;DHT22;30583;48.714;9.386;2023-06-19T00:58:05;29.10;40.30
44851;DHT22;30583;48.714;9.386;2023-06-19T01:00:31;28.90;40.70
44851;DHT22;30583;48.714;9.386;2023-06-19T01:02:57;29.00;40.60
44851;DHT22;30583;48.714;9.386;2023-06-19T01:05:22;29.00;40.50
44851;DHT22;30583;48.714;9.386;2023-06-19T01:08:03;29.00;40.70
44851;DHT22;30583;48.714;9.386;2023-06-19T01:10:41;29.00;40.80
44851;DHT22;30583;48.714;9.386;2023-06-19T01:13:14;29.00;41.00
44851;DHT22;30583;48.714;9.386;2023-06-19T01:15:42;29.00;40.80
44851;DHT22;30583;48.714;9.386;2023-06-19T01:18:08;28.90;40.60
44851;DHT22;30583;48.714;9.386;2023-06-19T01:20:37;29.10;39.70
44851;DHT22;30583;48.714;9.386;2023-06-19T01:23:10;29.00;39.60
44851;DHT22;30583;48.714;9.386;2023-06-19T01:25:36;29.00;39.50
44851;DHT22;30583;48.714;9.386;2023-06-19T01:28:07;28.80;39.70
44851;DHT22;30583;48.714;9.386;2023-06-19T01:30:35;29.00;39.50
44851;DHT22;30583;48.714;9.386;2023-06-19T01:33:11;29.20;39.00
44851;DHT22;30583;48.714;9.386;2023-06-19T01:35:40;29.00;39.10
44851;DHT22;30583;48.714;9.386;2023-06-19T01:38:07;28.90;39.10
44851;DHT22;30583;48.714;9.386;2023-06-19T01:40:34;28.90;39.20
44851;DHT22;30583;48.714;9.386;2023-06-19T01:43:00;28.90;39.20
44851;DHT22;30583;48.714;9.386;2023-06-19T01:45:28;28.70;40.00
44851;DHT22;30583;48.714;9.386;2023-06-19T01:47:54;29.00;39.80
44851;DHT22;30583;48.714;9.386;2023-06-19T01:50:22;28.80;40.10
44851;DHT22;30583;48.714;9.386;2023-06-19T01:52:47;28.80;41.00
44851;DHT22;30583;48.714;9.386;2023-06-19T01:55:13;28.50;41.70
44851;DHT22;30583;48.714;9.386;2023-06-19T01:57:39;28.70;41.20
44851;DHT22;30583;48.714;9.386;2023-06-19T02:00:06;28.70;41.40
44851;DHT22;30583;48.714;9.386;2023-06-19T02:02:33;29.00;40.60
44851;DHT22;30583;48.714;9.386;2023-06-19T02:04:59;28.90;40.70
44851;DHT22;30583;48.714;9.386;2023-06-19T02:07:24;28.80;40.70
44851;DHT22;30583;48.714;9.386;2023-06-19T02:09:50;28.50;40.70
44851;DHT22;30583;48.714;9.386;2023-06-19T02:12:16;28.40;40.90
44851;DHT22;30583;48.714;9.386;2023-06-19T02:14:41;28.60;40.70
44851;DHT22;30583;48.714;9.386;2023-06-19T02:17:07;28.70;40.50
44851;DHT22;30583;48.714;9.386;2023-06-19T02:19:32;29.00;40.20
44851;DHT22;30583;48.714;9.386;2023-06-19T02:21:58;28.80;40.90
44851;DHT22;30583;48.714;9.386;2023-06-19T02:24:23;28.70;41.40
44851;DHT22;30583;48.714;9.386;2023-06-19T02:26:50;28.90;41.10
44851;DHT22;30583;48.714;9.386;2023-06-19T02:29:16;28.70;41.20
44851;DHT22;30583;48.714;9.386;2023-06-19T02:31:42;28.70;40.30
44851;DHT22;30583;48.714;9.386;2023-06-19T02:34:08;28.60;40.30
44851;DHT22;30583;48.714;9.386;2023-06-19T02:36:34;28.20;41.30
44851;DHT22;30583;48.714;9.386;2023-06-19T02:39:01;28.40;41.00
44851;DHT22;30583;48.714;9.386;2023-06-19T02:41:27;28.60;40.60
44851;DHT22;30583;48.714;9.386;2023-06-19T02:43:52;28.50;40.80
44851;DHT22;30583;48.714;9.386;2023-06-19T02:46:18;28.40;40.80
44851;DHT22;30583;48.714;9.386;2023-06-19T02:48:43;28.60;40.80
44851;DHT22;30583;48.714;9.386;2023-06-19T02:51:09;28.50;41.10
44851;DHT22;30583;48.714;9.386;2023-06-19T02:53:34;28.10;41.80
44851;DHT22;30583;48.714;9.386;2023-06-19T02:56:00;28.00;42.30
44851;DHT22;30583;48.714;9.386;2023-06-19T02:58:25;27.90;42.40
44851;DHT22;30583;48.714;9.386;2023-06-19T03:00:52;28.10;42.00
44851;DHT22;30583;48.714;9.386;2023-06-19T03:03:17;28.50;41.40
44851;DHT22;30583;48.714;9.386;2023-06-19T03:05:43;28.50;41.50
44851;DHT22;30583;48.714;9.386;2023-06-19T03:08:09;28.30;41.90
44851;DHT22;30583;48.714;9.386;2023-06-19T03:10:34;28.20;42.30
44851;DHT22;30583;48.714;9.386;2023-06-19T03:13:00;28.30;42.10
44851;DHT22;30583;48.714;9.386;2023-06-19T03:15:26;27.70;42.90
44851;DHT22;30583;48.714;9.386;2023-06-19T03:17:54;27.40;43.80
44851;DHT22;30583;48.714;9.386;2023-06-19T03:20:20;27.70;43.60
44851;DHT22;30583;48.714;9.386;2023-06-19T03:22:46;27.40;44.10
44851;DHT22;30583;48.714;9.386;2023-06-19T03:25:12;25.90;47.60
44851;DHT22;30583;48.714;9.386;2023-06-19T03:27:37;26.80;45.50
44851;DHT22;30583;48.714;9.386;2023-06-19T03:30:04;26.90;45.60
44851;DHT22;30583;48.714;9.386;2023-06-19T03:32:33;27.20;44.80
44851;DHT22;30583;48.714;9.386;2023-06-19T03:34:59;27.70;44.00
44851;DHT22;30583;48.714;9.386;2023-06-19T03:37:25;27.90;43.50
44851;DHT22;30583;48.714;9.386;2023-06-19T03:39:50;27.70;44.00
44851;DHT22;30583;48.714;9.386;2023-06-19T03:42:16;27.70;43.80
44851;DHT22;30583;48.714;9.386;2023-06-19T03:44:41;27.90;43.70
44851;DHT22;30583;48.714;9.386;2023-06-19T03:47:07;28.00;43.30
44851;DHT22;30583;48.714;9.386;2023-06-19T03:49:33;28.10;43.20
44851;DHT22;30583;48.714;9.386;2023-06-19T03:51:58;28.00;43.30
44851;DHT22;30583;48.714;9.386;2023-06-19T03:54:24;28.00;43.50
44851;DHT22;30583;48.714;9.386;2023-06-19T03:56:51;27.90;43.80
44851;DHT22;30583;48.714;9.386;2023-06-19T03:59:17;28.00;43.80
44851;DHT22;30583;48.714;9.386;2023-06-19T04:01:43;27.90;43.90
44851;DHT22;30583;48.714;9.386;2023-06-19T04:04:08;28.00;44.40
44851;DHT22;30583;48.714;9.386;2023-06-19T04:06:34;28.00;44.00
44851;DHT22;30583;48.714;9.386;2023-06-19T04:09:00;27.90;44.80
44851;DHT22;30583;48.714;9.386;2023-06-19T04:11:25;28.00;45.00
44851;DHT22;30583;48.714;9.386;2023-06-19T04:13:51;28.10;44.50
44851;DHT22;30583;48.714;9.386;2023-06-19T04:16:16;28.10;44.60
44851;DHT22;30583;48.714;9.386;2023-06-19T04:18:42;28.10;44.80
44851;DHT22;30583;48.714;9.386;2023-06-19T04:21:07;28.00;44.70
44851;DHT22;30583;48.714;9.386;2023-06-19T04:23:33;28.00;44.80
44851;DHT22;30583;48.714;9.386;2023-06-19T04:25:59;28.10;45.00
44851;DHT22;30583;48.714;9.386;2023-06-19T04:28:24;28.00;44.80
44851;DHT22;30583;48.714;9.386;2023-06-19T04:30:51;28.00;45.00
44851;DHT22;30583;48.714;9.386;2023-06-19T04:33:26;28.00;44.90
44851;DHT22;30583;48.714;9.386;2023-06-19T04:35:51;27.90;45.30
44851;DHT22;30583;48.714;9.386;2023-06-19T04:38:17;28.00;44.60
44851;DHT22;30583;48.714;9.386;2023-06-19T04:40:42;27.80;45.30
44851;DHT22;30583;48.714;9.386;2023-06-19T04:43:08;28.00;44.80
44851;DHT22;30583;48.714;9.386;2023-06-19T04:45:34;28.00;44.90
44851;DHT22;30583;48.714;9.386;2023-06-19T04:47:59;28.20;44.60
44851;DHT22;30583;48.714;9.386;2023-06-19T04:50:28;28.10;45.20
44851;DHT22;30583;48.714;9.386;2023-06-19T04:52:53;28.10;45.40
44851;DHT22;30583;48.714;9.386;2023-06-19T04:55:19;28.00;45.80
44851;DHT22;30583;48.714;9.386;2023-06-19T04:57:45;27.40;46.30
44851;DHT22;30583;48.714;9.386;2023-06-19T05:00:11;27.10;47.40
44851;DHT22;30583;48.714;9.386;2023-06-19T05:02:37;26.20;49.90
44851;DHT22;30583;48.714;9.386;2023-06-19T05:05:03;25.80;49.60
44851;DHT22;30583;48.714;9.386;2023-06-19T05:07:30;26.00;49.10
44851;DHT22;30583;48.714;9.386;2023-06-19T05:09:56;25.50;51.20
44851;DHT22;30583;48.714;9.386;2023-06-19T05:12:22;25.20;52.30
44851;DHT22;30583;48.714;9.386;2023-06-19T05:14:48;24.90;52.90
44851;DHT22;30583;48.714;9.386;2023-06-19T05:17:13;25.20;52.00
44851;DHT22;30583;48.714;9.386;2023-06-19T05:19:39;25.60;51.20
44851;DHT22;30583;48.714;9.386;2023-06-19T05:22:05;25.70;50.80
44851;DHT22;30583;48.714;9.386;2023-06-19T05:24:32;25.90;50.70
44851;DHT22;30583;48.714;9.386;2023-06-19T05:26:57;26.00;50.30
44851;DHT22;30583;48.714;9.386;2023-06-19T05:29:23;25.90;50.60
44851;DHT22;30583;48.714;9.386;2023-06-19T05:31:49;26.00;49.80
44851;DHT22;30583;48.714;9.386;2023-06-19T05:34:14;25.90;50.20
44851;DHT22;30583;48.714;9.386;2023-06-19T05:36:40;26.00;50.10
44851;DHT22;30583;48.714;9.386;2023-06-19T05:39:05;25.90;50.40
44851;DHT22;30583;48.714;9.386;2023-06-19T05:41:31;25.80;50.50
44851;DHT22;30583;48.714;9.386;2023-06-19T05:43:57;25.60;51.30
44851;DHT22;30583;48.714;9.386;2023-06-19T05:46:22;25.20;52.60
44851;DHT22;30583;48.714;9.386;2023-06-19T05:48:48;25.50;51.70
44851;DHT22;30583;48.714;9.386;2023-06-19T05:51:14;25.60;51.20
44851;DHT22;30583;48.714;9.386;2023-06-19T05:53:39;25.80;50.60
44851;DHT22;30583;48.714;9.386;2023-06-19T05:56:06;25.60;50.60
44851;DHT22;30583;48.714;9.386;2023-06-19T05:58:32;25.50;51.00
44851;DHT22;30583;48.714;9.386;2023-06-19T06:00:57;25.30;51.50
44851;DHT22;30583;48.714;9.386;2023-06-19T06:03:26;25.20;51.80
44851;DHT22;30583;48.714;9.386;2023-06-19T06:05:53;25.40;51.50
44851;DHT22;30583;48.714;9.386;2023-06-19T06:08:19;25.20;52.20
44851;DHT22;30583;48.714;9.386;2023-06-19T06:10:44;25.40;51.50
44851;DHT22;30583;48.714;9.386;2023-06-19T06:13:10;25.50;51.20
44851;DHT22;30583;48.714;9.386;2023-06-19T06:15:35;25.10;52.40
44851;DHT22;30583;48.714;9.386;2023-06-19T06:18:01;25.30;51.80
44851;DHT22;30583;48.714;9.386;2023-06-19T06:20:28;25.70;51.20
44851;DHT22;30583;48.714;9.386;2023-06-19T06:22:54;25.40;51.30
44851;DHT22;30583;48.714;9.386;2023-06-19T06:25:20;24.90;52.80
44851;DHT22;30583;48.714;9.386;2023-06-19T06:27:46;25.30;52.20
44851;DHT22;30583;48.714;9.386;2023-06-19T06:30:12;25.20;52.40
44851;DHT22;30583;48.714;9.386;2023-06-19T06:32:38;25.00;52.90
44851;DHT22;30583;48.714;9.386;2023-06-19T06:35:03;25.20;52.40
44851;DHT22;30583;48.714;9.386;2023-06-19T06:37:29;25.00;53.10
44851;DHT22;30583;48.714;9.386;2023-06-19T06:39:55;25.40;52.10
44851;DHT22;30583;48.714;9.386;2023-06-19T06:42:21;25.20;52.50
44851;DHT22;30583;48.714;9.386;2023-06-19T06:44:46;24.70;54.10
44851;DHT22;30583;48.714;9.386;2023-06-19T06:47:12;24.60;54.40
44851;DHT22;30583;48.714;9.386;2023-06-19T06:49:37;25.10;53.50
44851;DHT22;30583;48.714;9.386;2023-06-19T06:52:04;24.90;53.80
44851;DHT22;30583;48.714;9.386;2023-06-19T06:54:30;25.20;53.20
44851;DHT22;30583;48.714;9.386;2023-06-19T06:56:55;25.20;53.50
44851;DHT22;30583;48.714;9.386;2023-06-19T06:59:25;25.40;53.10
44851;DHT22;30583;48.714;9.386;2023-06-19T07:01:55;25.80;51.70
44851;DHT22;30583;48.714;9.386;2023-06-19T07:04:21;26.00;51.20
44851;DHT22;30583;48.714;9.386;2023-06-19T07:06:47;26.00;51.70
44851;DHT22;30583;48.714;9.386;2023-06-19T07:09:14;25.90;52.30
44851;DHT22;30583;48.714;9.386;2023-06-19T07:11:40;25.90;52.90
44851;DHT22;30583;48.714;9.386;2023-06-19T07:14:06;25.80;52.20
44851;DHT22;30583;48.714;9.386;2023-06-19T07:16:31;25.60;52.90
44851;DHT22;30583;48.714;9.386;2023-06-19T07:18:57;25.40;53.20
44851;DHT22;30583;48.714;9.386;2023-06-19T07:21:23;25.30;53.70
44851;DHT22;30583;48.714;9.386;2023-06-19T07:23:49;25.70;52.60
44851;DHT22;30583;48.714;9.386;2023-06-19T07:26:14;25.60;53.00
44851;DHT22;30583;48.714;9.386;2023-06-19T07:28:41;25.70;52.50
44851;DHT22;30583;48.714;9.386;2023-06-19T07:31:07;25.70;52.40
44851;DHT22;30583;48.714;9.386;2023-06-19T07:33:33;25.70;52.20
44851;DHT22;30583;48.714;9.386;2023-06-19T07:35:58;25.60;52.80
44851;DHT22;30583;48.714;9.386;2023-06-19T07:38:24;25.80;52.10
44851;DHT22;30583;48.714;9.386;2023-06-19T07:40:50;26.20;51.10
44851;DHT22;30583;48.714;9.386;2023-06-19T07:43:16;26.20;51.30
44851;DHT22;30583;48.714;9.386;2023-06-19T07:45:42;26.50;50.50
44851;DHT22;30583;48.714;9.386;2023-06-19T07:48:08;26.60;50.40
44851;DHT22;30583;48.714;9.386;2023-06-19T07:50:33;26.40;50.50
44851;DHT22;30583;48.714;9.386;2023-06-19T07:52:59;26.50;50.30
44851;DHT22;30583;48.714;9.386;2023-06-19T07:55:25;26.50;50.00
44851;DHT22;30583;48.714;9.386;2023-06-19T07:57:50;26.20;50.40
44851;DHT22;30583;48.714;9.386;2023-06-19T08:00:17;26.20;51.10
44851;DHT22;30583;48.714;9.386;2023-06-19T08:02:43;26.10;51.20
44851;DHT22;30583;48.714;9.386;2023-06-19T08:05:09;26.30;51.00
44851;DHT22;30583;48.714;9.386;2023-06-19T08:07:36;26.30;50.80
44851;DHT22;30583;48.714;9.386;2023-06-19T08:10:02;26.40;50.30
44851;DHT22;30583;48.714;9.386;2023-06-19T08:12:29;26.30;50.60
44851;DHT22;30583;48.714;9.386;2023-06-19T08:14:55;26.30;50.90
44851;DHT22;30583;48.714;9.386;2023-06-19T08:17:20;26.30;50.80
44851;DHT22;30583;48.714;9.386;2023-06-19T08:19:47;26.40;50.30
44851;DHT22;30583;48.714;9.386;2023-06-19T08:22:13;26.60;49.50
44851;DHT22;30583;48.714;9.386;2023-06-19T08:24:38;26.70;49.30
44851;DHT22;30583;48.714;9.386;2023-06-19T08:27:06;26.70;49.20
44851;DHT22;30583;48.714;9.386;2023-06-19T08:29:32;26.60;49.60
44851;DHT22;30583;48.714;9.386;2023-06-19T08:31:57;26.40;50.10
44851;DHT22;30583;48.714;9.386;2023-06-19T08:34:23;26.70;50.00
44851;DHT22;30583;48.714;9.386;2023-06-19T08:36:49;26.60;50.10
44851;DHT22;30583;48.714;9.386;2023-06-19T08:39:14;27.10;48.70
44851;DHT22;30583;48.714;9.386;2023-06-19T08:41:40;27.20;47.90
44851;DHT22;30583;48.714;9.386;2023-06-19T08:44:07;27.10;47.80
44851;DHT22;30583;48.714;9.386;2023-06-19T08:46:33;27.10;47.20
44851;DHT22;30583;48.714;9.386;2023-06-19T08:48:59;27.60;47.00
44851;DHT22;30583;48.714;9.386;2023-06-19T08:51:27;27.20;47.20
44851;DHT22;30583;48.714;9.386;2023-06-19T08:54:03;27.30;46.70
44851;DHT22;30583;48.714;9.386;2023-06-19T08:56:30;27.40;45.80
44851;DHT22;30583;48.714;9.386;2023-06-19T08:59:08;27.60;45.60
44851;DHT22;30583;48.714;9.386;2023-06-19T09:01:34;27.60;45.60
44851;DHT22;30583;48.714;9.386;2023-06-19T09:04:00;27.60;46.20
44851;DHT22;30583;48.714;9.386;2023-06-19T09:06:32;27.70;45.50
44851;DHT22;30583;48.714;9.386;2023-06-19T09:08:59;27.90;45.50
44851;DHT22;30583;48.714;9.386;2023-06-19T09:11:25;28.00;45.40
44851;DHT22;30583;48.714;9.386;2023-06-19T09:13:57;27.90;45.30
44851;DHT22;30583;48.714;9.386;2023-06-19T09:16:23;27.90;45.30
44851;DHT22;30583;48.714;9.386;2023-06-19T09:18:51;27.90;45.90
44851;DHT22;30583;48.714;9.386;2023-06-19T09:21:18;27.80;45.30
44851;DHT22;30583;48.714;9.386;2023-06-19T09:23:45;27.90;45.40
44851;DHT22;30583;48.714;9.386;2023-06-19T09:26:14;28.30;44.70
44851;DHT22;30583;48.714;9.386;2023-06-19T09:28:41;27.80;44.30
44851;DHT22;30583;48.714;9.386;2023-06-19T09:31:10;28.20;44.00
44851;DHT22;30583;48.714;9.386;2023-06-19T09:33:37;28.60;43.30
44851;DHT22;30583;48.714;9.386;2023-06-19T09:36:04;28.50;42.60
44851;DHT22;30583;48.714;9.386;2023-06-19T09:38:33;28.70;42.60
44851;DHT22;30583;48.714;9.386;2023-06-19T09:41:01;28.70;42.10
44851;DHT22;30583;48.714;9.386;2023-06-19T09:46:00;29.10;41.90
44851;DHT22;30583;48.714;9.386;2023-06-19T09:48:31;29.20;41.50
44851;DHT22;30583;48.714;9.386;2023-06-19T09:51:23;29.10;41.80
44851;DHT22;30583;48.714;9.386;2023-06-19T09:53:49;29.30;41.50
44851;DHT22;30583;48.714;9.386;2023-06-19T09:56:16;29.10;42.00
44851;DHT22;30583;48.714;9.386;2023-06-19T09:58:48;28.70;42.90
44851;DHT22;30583;48.714;9.386;2023-06-19T10:01:15;29.00;42.90
44851;DHT22;30583;48.714;9.386;2023-06-19T10:03:43;28.90;42.80
44851;DHT22;30583;48.714;9.386;2023-06-19T10:06:16;28.80;43.20
44851;DHT22;30583;48.714;9.386;2023-06-19T10:08:44;28.50;43.50
44851;DHT22;30583;48.714;9.386;2023-06-19T10:11:10;28.80;43.10
44851;DHT22;30583;48.714;9.386;2023-06-19T10:13:37;28.60;43.40
44851;DHT22;30583;48.714;9.386;2023-06-19T10:16:22;28.30;44.00
44851;DHT22;30583;48.714;9.386;2023-06-19T10:18:48;28.30;44.00
44851;DHT22;30583;48.714;9.386;2023-06-19T10:21:21;28.40;44.00
44851;DHT22;30583;48.714;9.386;2023-06-19T10:23:54;28.70;43.50
44851;DHT22;30583;48.714;9.386;2023-06-19T10:26:29;29.00;43.20
44851;DHT22;30583;48.714;9.386;2023-06-19T10:28:55;29.20;42.30
44851;DHT22;30583;48.714;9.386;2023-06-19T10:31:21;29.30;42.60
44851;DHT22;30583;48.714;9.386;2023-06-19T10:33:46;29.70;41.80
44851;DHT22;30583;48.714;9.386;2023-06-19T10:36:18;29.40;42.20
44851;DHT22;30583;48.714;9.386;2023-06-19T10:38:45;29.30;40.90
44851;DHT22;30583;48.714;9.386;2023-06-19T10:41:22;29.20;40.60
44851;DHT22;30583;48.714;9.386;2023-06-19T10:44:00;29.60;41.40
44851;DHT22;30583;48.714;9.386;2023-06-19T10:46:30;29.30;41.10
44851;DHT22;30583;48.714;9.386;2023-06-19T10:48:56;29.60;41.20
44851;DHT22;30583;48.714;9.386;2023-06-19T10:51:27;29.70;40.50
44851;DHT22;30583;48.714;9.386;2023-06-19T10:53:54;30.10;40.30
44851;DHT22;30583;48.714;9.386;2023-06-19T10:56:21;30.50;39.80
44851;DHT22;30583;48.714;9.386;2023-06-19T10:58:47;30.40;39.30
44851;DHT22;30583;48.714;9.386;2023-06-19T11:01:12;30.70;39.10
44851;DHT22;30583;48.714;9.386;2023-06-19T11:03:38;30.60;38.10
44851;DHT22;30583;48.714;9.386;2023-06-19T11:06:04;30.20;39.40
44851;DHT22;30583;48.714;9.386;2023-06-19T11:08:29;30.30;38.80
44851;DHT22;30583;48.714;9.386;2023-06-19T11:10:55;30.40;38.60
44851;DHT22;30583;48.714;9.386;2023-06-19T11:13:21;30.70;38.30
44851;DHT22;30583;48.714;9.386;2023-06-19T11:15:48;30.70;37.90
44851;DHT22;30583;48.714;9.386;2023-06-19T11:18:15;30.80;38.60
44851;DHT22;30583;48.714;9.386;2023-06-19T11:20:49;30.90;37.70
44851;DHT22;30583;48.714;9.386;2023-06-19T11:23:16;30.90;37.80
44851;DHT22;30583;48.714;9.386;2023-06-19T11:25:42;30.40;38.40
44851;DHT22;30583;48.714;9.386;2023-06-19T11:28:15;30.30;38.50
44851;DHT22;30583;48.714;9.386;2023-06-19T11:30:44;30.50;38.30
44851;DHT22;30583;48.714;9.386;2023-06-19T11:35:47;30.20;39.00
44851;DHT22;30583;48.714;9.386;2023-06-19T11:38:19;30.60;39.10
44851;DHT22;30583;48.714;9.386;2023-06-19T11:40:45;30.30;39.20
44851;DHT22;30583;48.714;9.386;2023-06-19T11:43:11;30.20;39.60
44851;DHT22;30583;48.714;9.386;2023-06-19T11:45:48;31.10;39.20
44851;DHT22;30583;48.714;9.386;2023-06-19T11:48:21;31.60;38.10
44851;DHT22;30583;48.714;9.386;2023-06-19T11:50:46;31.30;38.80
44851;DHT22;30583;48.714;9.386;2023-06-19T11:53:12;31.40;38.50
44851;DHT22;30583;48.714;9.386;2023-06-19T11:55:38;31.50;38.20
44851;DHT22;30583;48.714;9.386;2023-06-19T11:58:04;31.80;37.70
44851;DHT22;30583;48.714;9.386;2023-06-19T12:00:29;31.90;37.50
44851;DHT22;30583;48.714;9.386;2023-06-19T12:02:55;32.20;37.20
44851;DHT22;30583;48.714;9.386;2023-06-19T12:05:22;32.20;37.00
44851;DHT22;30583;48.714;9.386;2023-06-19T12:07:48;31.70;37.00
44851;DHT22;30583;48.714;9.386;2023-06-19T12:10:13;31.80;37.50
44851;DHT22;30583;48.714;9.386;2023-06-19T12:12:39;31.40;38.10
44851;DHT22;30583;48.714;9.386;2023-06-19T12:15:06;31.60;37.90
44851;DHT22;30583;48.714;9.386;2023-06-19T12:17:32;31.70;37.70
44851;DHT22;30583;48.714;9.386;2023-06-19T12:19:58;31.90;37.10
44851;DHT22;30583;48.714;9.386;2023-06-19T12:22:24;31.90;37.10
44851;DHT22;30583;48.714;9.386;2023-06-19T12:24:49;32.30;36.80
44851;DHT22;30583;48.714;9.386;2023-06-19T12:27:15;32.20;37.10
44851;DHT22;30583;48.714;9.386;2023-06-19T12:29:41;31.80;37.40
44851;DHT22;30583;48.714;9.386;2023-06-19T12:32:07;31.20;38.20
44851;DHT22;30583;48.714;9.386;2023-06-19T12:34:32;31.20;38.20
44851;DHT22;30583;48.714;9.386;2023-06-19T12:36:58;30.90;39.10
44851;DHT22;30583;48.714;9.386;2023-06-19T12:39:23;30.90;39.10
44851;DHT22;30583;48.714;9.386;2023-06-19T12:41:50;30.70;39.60
44851;DHT22;30583;48.714;9.386;2023-06-19T12:44:15;30.90;39.30
44851;DHT22;30583;48.714;9.386;2023-06-19T12:46:42;30.90;40.00
44851;DHT22;30583;48.714;9.386;2023-06-19T12:49:07;31.30;39.10
44851;DHT22;30583;48.714;9.386;2023-06-19T12:51:33;31.60;39.40
44851;DHT22;30583;48.714;9.386;2023-06-19T12:53:59;31.80;38.40
44851;DHT22;30583;48.714;9.386;2023-06-19T12:56:25;31.80;38.40
44851;DHT22;30583;48.714;9.386;2023-06-19T12:58:50;31.70;38.80
44851;DHT22;30583;48.714;9.386;2023-06-19T13:01:16;31.60;39.40
44851;DHT22;30583;48.714;9.386;2023-06-19T13:03:41;32.10;38.40
44851;DHT22;30583;48.714;9.386;2023-06-19T13:06:07;32.40;38.10
44851;DHT22;30583;48.714;9.386;2023-06-19T13:08:32;32.50;37.70
44851;DHT22;30583;48.714;9.386;2023-06-19T13:10:58;32.30;37.70
44851;DHT22;30583;48.714;9.386;2023-06-19T13:13:23;32.50;37.80
44851;DHT22;30583;48.714;9.386;2023-06-19T13:15:49;32.80;36.90
44851;DHT22;30583;48.714;9.386;2023-06-19T13:18:15;32.80;37.20
44851;DHT22;30583;48.714;9.386;2023-06-19T13:20:40;33.00;36.90
44851;DHT22;30583;48.714;9.386;2023-06-19T13:23:06;32.60;37.30
44851;DHT22;30583;48.714;9.386;2023-06-19T13:25:31;32.20;37.70
44851;DHT22;30583;48.714;9.386;2023-06-19T13:27:58;32.50;37.30
44851;DHT22;30583;48.714;9.386;2023-06-19T13:30:23;32.70;37.20
44851;DHT22;30583;48.714;9.386;2023-06-19T13:32:49;32.50;37.30
44851;DHT22;30583;48.714;9.386;2023-06-19T13:35:14;32.20;37.60
44851;DHT22;30583;48.714;9.386;2023-06-19T13:37:40;32.00;37.70
44851;DHT22;30583;48.714;9.386;2023-06-19T13:40:06;31.80;38.50
44851;DHT22;30583;48.714;9.386;2023-06-19T13:42:33;31.80;38.20
44851;DHT22;30583;48.714;9.386;2023-06-19T13:45:00;32.00;37.20
44851;DHT22;30583;48.714;9.386;2023-06-19T13:47:27;32.30;36.80
44851;DHT22;30583;48.714;9.386;2023-06-19T13:49:53;32.50;36.70
44851;DHT22;30583;48.714;9.386;2023-06-19T13:52:18;32.70;36.20
44851;DHT22;30583;48.714;9.386;2023-06-19T13:54:44;32.70;36.40
44851;DHT22;30583;48.714;9.386;2023-06-19T13:57:10;32.30;36.20
44851;DHT22;30583;48.714;9.386;2023-06-19T13:59:35;32.70;36.00
44851;DHT22;30583;48.714;9.386;2023-06-19T14:02:01;32.70;35.80
44851;DHT22;30583;48.714;9.386;2023-06-19T14:04:27;32.20;36.30
44851;DHT22;30583;48.714;9.386;2023-06-19T14:06:52;32.10;36.40
44851;DHT22;30583;48.714;9.386;2023-06-19T14:09:20;32.20;36.30
44851;DHT22;30583;48.714;9.386;2023-06-19T14:11:46;32.50;35.60
44851;DHT22;30583;48.714;9.386;2023-06-19T14:14:11;32.40;36.20
44851;DHT22;30583;48.714;9.386;2023-06-19T14:16:37;32.50;36.00
44851;DHT22;30583;48.714;9.386;2023-06-19T14:19:02;32.50;35.70
44851;DHT22;30583;48.714;9.386;2023-06-19T14:21:28;32.70;35.30
44851;DHT22;30583;48.714;9.386;2023-06-19T14:23:54;32.80;35.40
44851;DHT22;30583;48.714;9.386;2023-06-19T14:26:19;32.70;35.80
44851;DHT22;30583;48.714;9.386;2023-06-19T14:28:45;32.40;35.40
44851;DHT22;30583;48.714;9.386;2023-06-19T14:31:11;32.60;35.50
44851;DHT22;30583;48.714;9.386;2023-06-19T14:33:36;32.30;35.60
44851;DHT22;30583;48.714;9.386;2023-06-19T14:36:03;32.60;35.30
44851;DHT22;30583;48.714;9.386;2023-06-19T14:38:29;32.90;35.60
44851;DHT22;30583;48.714;9.386;2023-06-19T14:41:02;32.60;35.30
44851;DHT22;30583;48.714;9.386;2023-06-19T14:43:27;32.80;34.70
44851;DHT22;30583;48.714;9.386;2023-06-19T14:45:54;33.10;34.70
44851;DHT22;30583;48.714;9.386;2023-06-19T14:48:19;32.70;35.00
44851;DHT22;30583;48.714;9.386;2023-06-19T14:50:45;32.70;35.30
44851;DHT22;30583;48.714;9.386;2023-06-19T14:53:11;32.60;35.00
44851;DHT22;30583;48.714;9.386;2023-06-19T14:55:36;32.70;35.20
44851;DHT22;30583;48.714;9.386;2023-06-19T14:58:05;32.90;34.90
44851;DHT22;30583;48.714;9.386;2023-06-19T15:00:30;32.90;34.70
44851;DHT22;30583;48.714;9.386;2023-06-19T15:02:56;32.20;35.10
44851;DHT22;30583;48.714;9.386;2023-06-19T15:05:21;32.50;35.40
44851;DHT22;30583;48.714;9.386;2023-06-19T15:07:47;32.70;35.10
44851;DHT22;30583;48.714;9.386;2023-06-19T15:10:13;32.80;35.10
44851;DHT22;30583;48.714;9.386;2023-06-19T15:12:38;32.30;35.20
44851;DHT22;30583;48.714;9.386;2023-06-19T15:15:04;32.50;35.00
44851;DHT22;30583;48.714;9.386;2023-06-19T15:17:30;32.70;34.70
44851;DHT22;30583;48.714;9.386;2023-06-19T15:19:56;32.70;34.80
44851;DHT22;30583;48.714;9.386;2023-06-19T15:22:21;32.70;34.90
44851;DHT22;30583;48.714;9.386;2023-06-19T15:24:47;32.40;35.10
44851;DHT22;30583;48.714;9.386;2023-06-19T15:27:12;32.20;35.70
44851;DHT22;30583;48.714;9.386;2023-06-19T15:29:38;32.20;35.80
44851;DHT22;30583;48.714;9.386;2023-06-19T15:32:04;32.10;35.90